Flight Track Log - Related Links

Times and Time Zones

All times are in EDT time to prevent confusion due to time zone crossing. See the SKW5516 flight status page for this flight to view local times or setup timezone preferences in your user account.

Time Position Orientation Groundspeed Altitude Reporting Facility
EDT Latitude Longitude Course Direction KTS MPH feet Rate Location/Type
Sat 09:36:00 PM 34.1614 -117.9030 62° Northeast  Level Estimated
Sat 09:37:00 PM 34.2158 -117.7763 63° Northeast  Level Estimated
Sat 09:38:00 PM 34.2701 -117.6494 63° Northeast  Level Estimated
Sat 09:39:00 PM 34.3242 -117.5224 63° Northeast  Level Estimated
Sat 09:40:00 PM 34.3782 -117.3953 63° Northeast  Level Estimated
Sat 09:41:00 PM 34.4321 -117.2679 63° Northeast  Level Estimated
Sat 09:42:00 PM 34.4859 -117.1404 63° Northeast  Level Estimated
Sat 09:43:00 PM 34.5395 -117.0127 63° Northeast  Level Estimated
Sat 09:44:00 PM 34.5929 -116.8849 63° Northeast  Level Estimated
Sat 09:45:00 PM 34.6463 -116.7569 63° Northeast  Level Estimated
Sat 09:46:00 PM 34.6995 -116.6288 63° Northeast  Level Estimated
Sat 09:47:00 PM 34.7526 -116.5005 63° Northeast  Level Estimated
Sat 09:48:00 PM 34.8055 -116.3720 63° Northeast  Level Estimated
Sat 09:49:00 PM 34.8583 -116.2433 63° Northeast  Level Estimated
Sat 09:50:00 PM 34.9110 -116.1145 63° Northeast  Level Estimated
Sat 09:51:00 PM 34.9635 -115.9855 64° Northeast  Level Estimated
Sat 09:52:00 PM 35.0159 -115.8564 64° Northeast  Level Estimated
Sat 09:53:00 PM 35.0682 -115.7270 64° Northeast  Level Estimated
Sat 09:54:00 PM 35.1203 -115.5976 64° Northeast  Level Estimated
Sat 09:55:00 PM 35.1723 -115.4679 64° Northeast  Level Estimated
Sat 09:56:00 PM 35.2242 -115.3381 64° Northeast  Level Estimated
Sat 09:57:00 PM 35.2759 -115.2081 64° Northeast  Level Estimated
Sat 09:58:00 PM 35.3274 -115.0780 64° Northeast  Level Estimated
Sat 09:59:00 PM 35.3789 -114.9477 64° Northeast  Level Estimated
Sat 10:00:00 PM 35.4302 -114.8172 64° Northeast  Level Estimated
Sat 10:01:00 PM 35.4813 -114.6865 64° Northeast  Level Estimated
Sat 10:02:00 PM 35.5323 -114.5557 64° Northeast  Level Estimated
Sat 10:03:00 PM 35.5832 -114.4248 64° Northeast  Level Estimated
Sat 10:04:00 PM 35.6339 -114.2936 65° Northeast  Level Estimated
Sat 10:05:00 PM 35.6845 -114.1623 65° Northeast  Level Estimated
Sat 10:06:00 PM 35.7350 -114.0309 65° Northeast  Level Estimated
Sat 10:07:00 PM 35.7853 -113.8992 65° Northeast  Level Estimated
Sat 10:08:00 PM 35.8354 -113.7674 65° Northeast  Level Estimated
Sat 10:09:00 PM 35.8854 -113.6354 65° Northeast  Level Estimated
Sat 10:10:00 PM 35.9353 -113.5033 65° Northeast  Level Estimated
Sat 10:11:00 PM 35.9850 -113.3710 65° Northeast  Level Estimated
Sat 10:12:00 PM 36.0346 -113.2385 65° Northeast  Level Estimated
Sat 10:13:00 PM 36.0840 -113.1059 65° Northeast  Level Estimated
Sat 10:14:00 PM 36.1333 -112.9731 65° Northeast  Level Estimated
Sat 10:15:00 PM 36.1824 -112.8401 65° Northeast  Level Estimated
Sat 10:16:00 PM 36.2314 -112.7069 65° Northeast  Level Estimated
Sat 10:17:00 PM 36.2803 -112.5736 66° East  Level Estimated
Sat 10:18:00 PM 36.3290 -112.4402 66° East  Level Estimated
Sat 10:19:00 PM 36.3775 -112.3065 66° East  Level Estimated
Sat 10:20:00 PM 36.4259 -112.1727 66° East  Level Estimated
Sat 10:21:00 PM 36.4742 -112.0387 66° East  Level Estimated
Sat 10:22:00 PM 36.5223 -111.9046 66° East  Level Estimated
Sat 10:23:00 PM 36.5702 -111.7703 66° East  Level Estimated
Sat 10:24:00 PM 36.6180 -111.6358 66° East  Level Estimated
Sat 10:25:00 PM 36.6656 -111.5012 66° East  Level Estimated
Sat 10:26:00 PM 36.7131 -111.3664 66° East  Level Estimated
Sat 10:27:00 PM 36.7605 -111.2314 66° East  Level Estimated
Sat 10:28:00 PM 36.8077 -111.0963 66° East  Level Estimated
Sat 10:29:00 PM 36.8547 -110.9610 66° East  Level Estimated
Sat 10:30:00 PM 36.9016 -110.8255 67° East  Level Estimated
Sat 10:31:00 PM 36.9483 -110.6899 67° East  Level Estimated
Sat 10:32:00 PM 36.9949 -110.5541 67° East  Level Estimated
Sat 10:33:00 PM 37.0413 -110.4181 67° East  Level Estimated
Sat 10:34:00 PM 37.0876 -110.2820 67° East  Level Estimated
Sat 10:35:00 PM 37.1337 -110.1457 67° East  Level Estimated
Sat 10:36:00 PM 37.1796 -110.0092 67° East  Level Estimated
Sat 10:37:00 PM 37.2254 -109.8726 67° East  Level Estimated
Sat 10:38:00 PM 37.2710 -109.7358 67° East  Level Estimated
Sat 10:39:00 PM 37.3165 -109.5988 67° East  Level Estimated
Sat 10:40:00 PM 37.3619 -109.4617 67° East  Level Estimated
Sat 10:41:00 PM 37.4070 -109.3244 67° East  Level Estimated
Sat 10:42:00 PM 37.4520 -109.1869 68° East  Level Estimated
Sat 10:43:00 PM 37.4968 -109.0493 68° East  Level Estimated
Sat 10:44:00 PM 37.5415 -108.9115 68° East  Level Estimated
Sat 10:45:00 PM 37.5860 -108.7735 68° East  Level Estimated
Sat 10:46:00 PM 37.6304 -108.6354 68° East  Level Estimated
Sat 10:47:00 PM 37.6746 -108.4971 68° East  Level Estimated
Sat 10:48:00 PM 37.7187 -108.3587 68° East  Level Estimated
Sat 10:49:00 PM 37.7625 -108.2201 68° East  Level Estimated
Sat 10:50:00 PM 37.8063 -108.0813 68° East  Level Estimated
Sat 10:51:00 PM 37.8498 -107.9423 68° East  Level Estimated
Sat 10:52:00 PM 37.8932 -107.8032 68° East  Level Estimated
Sat 10:53:00 PM 37.9364 -107.6640 68° East  Level Estimated
Sat 10:54:00 PM 37.9795 -107.5245 69° East  Level Estimated
Sat 10:55:00 PM 38.0224 -107.3849 69° East  Level Estimated
Sat 10:56:00 PM 38.0651 -107.2452 69° East  Level Estimated
Sat 10:57:00 PM 38.1077 -107.1052 69° East  Level Estimated
Sat 10:58:00 PM 38.1501 -106.9652 69° East  Level Estimated
Sat 10:59:00 PM 38.1923 -106.8249 69° East  Level Estimated
Sat 11:00:00 PM 38.2344 -106.6845 69° East  Level Estimated
Sat 11:01:00 PM 38.2763 -106.5439 69° East  Level Estimated
Sat 11:02:00 PM 38.3180 -106.4032 69° East  Level Estimated
Sat 11:03:00 PM 38.3596 -106.2623 69° East  Level Estimated
Sat 11:04:00 PM 38.4010 -106.1212 69° East  Level Estimated
Sat 11:05:00 PM 38.4422 -105.9800 70° East  Level Estimated
Sat 11:06:00 PM 38.4832 -105.8386 70° East  Level Estimated
Sat 11:07:00 PM 38.5241 -105.6971 70° East  Level Estimated
Sat 11:08:00 PM 38.5648 -105.5554 70° East  Level Estimated
Sat 11:09:00 PM 38.6054 -105.4135 70° East  Level Estimated
Sat 11:10:00 PM 38.6457 -105.2715 70° East  Level Estimated
Sat 11:11:00 PM 38.6859 -105.1293 70° East  Level Estimated
Sat 11:12:00 PM 38.7260 -104.9870 70° East  Level Estimated
Sat 11:13:00 PM 38.7658 -104.8445 70° East  Level Estimated
Sat 11:14:00 PM 38.8055 -104.7018 70° East  Level Estimated
Sat 11:15:00 PM 38.8058 -104.7008 70° East  Level Estimated
Sat 11:16:00 PM 38.8058 -104.7008 159° South  Level Estimated
Sat 11:17:00 PM 38.8058 -104.7008 159° South  Level Estimated
Sat 11:18:00 PM 38.8058 -104.7008 159° South  Level Estimated
Sat 11:19:00 PM 38.8058 -104.7008 159° South  Level Estimated
Sat 11:20:00 PM 38.8058 -104.7008 159° South  Level Estimated
Sat 11:21:00 PM 38.8058 -104.7008 159° South  Level Estimated
Sat 11:22:00 PM 38.8058 -104.7008 159° South  Level Estimated
Sat 11:23:00 PM 38.8058 -104.7008 159° South  Level Estimated

Login

Don't have an account? Register now (free) for customized features, flight alerts, and more!